Terminal Aerodrome Forecast
Issued by NWS Wilmington, NC

Home | Current Version | Previous Version | Text Only | Print | Product List | Glossary On
Versions: 1 2 3 4 5 6 7 8 9 10 11 12 13 14
000
FTUS42 KILM 282325
TAFMYR
TAF
KMYR 282325Z 2900/2924 03005KT P6SM VCSH SCT035 BKN060
      TEMPO 2900/2901 3SM -TSRA BKN025CB
     FM290200 05006KT P6SM SCT035 BKN060
     FM290800 04006KT P6SM SCT015 BKN080
     FM291400 08008KT P6SM VCSH SCT020 BKN035 PROB30 2918/2924 3SM
      -TSRA BKN025CB
      AMD LTD TO CLD VIS AND WIND 2903/2910=

USA.gov is the U.S. government's official web portal to all federal, state and local government web resources and services.